Time;durP1;ratioP1;P1;durP2;ratioP2;P2;SDS_P1;SDS_P2;PMS_P1;PMS_P2;Temp;Humidity;BMP_temperature;BMP_pressure;BME280_temperature;BME280_humidity;BME280_pressure;Samples;Min_cycle;Max_cycle;Signal;HPM_P1;HPM_P2
2023/04/07 00:00:40;;;;;;;;;;;;;;;7.57;100.00;101482.00;5056868;28;20437;-54
2023/04/07 00:03:06;;;;;;;;;;;;;;;7.53;100.00;101483.56;5053474;28;19917;-55
2023/04/07 00:05:31;;;;;;;;;;;;;;;7.54;100.00;101487.00;5058490;28;19962;-54
2023/04/07 00:07:57;;;;;;;;;;;;;;;7.52;100.00;101479.25;5060389;28;19913;-53
2023/04/07 00:10:22;;;;;;;;;;;;;;;7.51;100.00;101490.25;5058740;28;19923;-53
2023/04/07 00:12:48;;;;;;;;;;;;;;;7.47;100.00;101485.81;5057731;28;20397;-53
2023/04/07 00:15:13;;;;;;;;;;;;;;;7.44;100.00;101483.06;5056662;28;20494;-53
2023/04/07 00:17:38;;;;;;;;;;;;;;;7.42;100.00;101492.38;5062923;28;19927;-54
2023/04/07 00:20:03;;;;;;;;;;;;;;;7.42;100.00;101494.03;5064038;28;20367;-45
2023/04/07 00:22:29;;;;;;;;;;;;;;;7.40;100.00;101496.53;5059883;28;20564;-45
2023/04/07 00:24:54;;;;;;;;;;;;;;;7.37;100.00;101492.94;5062756;28;20007;-45
2023/04/07 00:27:20;;;;;;;;;;;;;;;7.36;100.00;101494.63;5050292;28;20441;-44
2023/04/07 00:29:46;;;;;;;;;;;;;;;7.35;100.00;101494.53;5059328;28;19921;-45
2023/04/07 00:32:11;;;;;;;;;;;;;;;7.34;100.00;101491.09;5054552;28;20390;-45
2023/04/07 00:34:36;;;;;;;;;;;;;;;7.33;100.00;101491.88;5054842;28;20375;-45
2023/04/07 00:37:01;;;;;;;;;;;;;;;7.33;100.00;101484.22;5052294;28;19975;-46
2023/04/07 00:39:27;;;;;;;;;;;;;;;7.35;100.00;101490.31;5056397;28;19920;-45
2023/04/07 00:41:52;;;;;;;;;;;;;;;7.33;100.00;101484.22;5045025;28;19928;-45
2023/04/07 00:44:17;;;;;;;;;;;;;;;7.32;100.00;101484.13;5055488;28;19970;-45
2023/04/07 00:46:43;;;;;;;;;;;;;;;7.31;100.00;101479.81;5055440;28;19963;-44
2023/04/07 00:49:08;;;;;;;;;;;;;;;7.30;100.00;101484.06;5055986;28;19916;-44
2023/04/07 00:51:33;;;;;;;;;;;;;;;7.29;100.00;101484.00;5059623;28;19917;-44
2023/04/07 00:53:59;;;;;;;;;;;;;;;7.27;100.00;101481.34;5054426;28;19920;-44
2023/04/07 00:56:24;;;;;;;;;;;;;;;7.27;100.00;101491.56;5058294;28;19912;-44
2023/04/07 00:58:50;;;;;;;;;;;;;;;7.29;100.00;101489.13;5054091;28;19912;-43
2023/04/07 01:01:20;;;;;;;;;;;;;;;7.20;100.00;101482.72;5054886;28;19924;-43
2023/04/07 01:03:52;;;;;;;;;;;;;;;7.19;100.00;101482.63;5057920;28;19919;-45
2023/04/07 01:06:19;;;;;;;;;;;;;;;7.20;100.00;101486.94;5055241;28;19982;-45
2023/04/07 01:08:53;;;;;;;;;;;;;;;7.17;100.00;101477.44;5061742;28;19977;-47
2023/04/07 01:11:23;;;;;;;;;;;;;;;7.19;100.00;101480.94;5056809;28;19923;-44
2023/04/07 01:13:50;;;;;;;;;;;;;;;7.20;100.00;101481.81;5056073;28;20428;-45
2023/04/07 01:16:18;;;;;;;;;;;;;;;7.20;100.00;101486.94;5061087;28;19908;-45
2023/04/07 01:18:44;;;;;;;;;;;;;;;7.16;100.00;101482.47;5052722;28;19963;-45
2023/04/07 01:21:12;;;;;;;;;;;;;;;7.11;100.00;101482.25;5066415;28;20041;-44
2023/04/07 01:23:48;;;;;;;;;;;;;;;7.11;100.00;101489.91;5056828;28;19920;-46
2023/04/07 01:26:23;;;;;;;;;;;;;;;7.11;100.00;101491.59;5049586;28;19920;-44
2023/04/07 01:28:55;;;;;;;;;;;;;;;7.11;100.00;101489.03;5051011;28;19958;-44
2023/04/07 01:31:21;;;;;;;;;;;;;;;7.10;100.00;101489.81;5054603;28;19916;-45
2023/04/07 01:33:48;;;;;;;;;;;;;;;7.09;100.00;101493.19;5051898;28;19913;-46
2023/04/07 01:36:14;;;;;;;;;;;;;;;7.08;100.00;101502.53;5052334;28;19912;-48
2023/04/07 01:38:40;;;;;;;;;;;;;;;7.08;100.00;101510.19;5051509;28;19924;-44
2023/04/07 01:41:08;;;;;;;;;;;;;;;7.16;100.00;101501.28;5051190;28;20022;-45
2023/04/07 01:43:35;;;;;;;;;;;;;;;7.13;100.00;101503.66;5055166;28;19918;-45
2023/04/07 01:46:01;;;;;;;;;;;;;;;6.97;100.00;101494.28;5050649;28;19920;-49
2023/04/07 01:48:27;;;;;;;;;;;;;;;6.93;100.00;101507.72;5053105;28;19912;-45
2023/04/07 01:50:53;;;;;;;;;;;;;;;6.90;100.00;101501.56;5052671;28;19925;-45
2023/04/07 01:53:19;;;;;;;;;;;;;;;6.88;100.00;101506.59;5052286;28;19913;-44
2023/04/07 01:55:44;;;;;;;;;;;;;;;6.90;100.00;101506.69;5050168;28;19923;-44
2023/04/07 01:58:09;;;;;;;;;;;;;;;6.90;100.00;101515.22;5050676;28;20433;-46
2023/04/07 02:00:35;;;;;;;;;;;;;;;6.86;100.00;101510.78;5055043;28;20379;-44
2023/04/07 02:03:06;;;;;;;;;;;;;;;6.85;100.00;101519.22;5059695;28;20010;-44
2023/04/07 02:05:34;;;;;;;;;;;;;;;6.85;100.00;101519.22;5051909;28;19909;-44
2023/04/07 02:08:03;;;;;;;;;;;;;;;6.83;100.00;101515.69;5054294;28;19962;-45
2023/04/07 02:10:30;;;;;;;;;;;;;;;6.84;100.00;101517.44;5051064;28;20026;-45
2023/04/07 02:12:57;;;;;;;;;;;;;;;6.84;100.00;101514.91;5052408;28;19971;-45
2023/04/07 02:15:24;;;;;;;;;;;;;;;6.83;100.00;101520.81;5055693;28;19912;-44
2023/04/07 02:17:51;;;;;;;;;;;;;;;6.83;100.00;101525.94;5052717;28;19975;-47
2023/04/07 02:20:17;;;;;;;;;;;;;;;6.86;100.00;101520.13;5049548;28;19959;-46
2023/04/07 02:22:43;;;;;;;;;;;;;;;6.83;100.00;101520.81;5058719;28;19916;-45
2023/04/07 02:25:20;;;;;;;;;;;;;;;6.85;100.00;101528.56;5056055;28;19967;-45
2023/04/07 02:27:46;;;;;;;;;;;;;;;6.86;100.00;101526.09;5056859;28;19912;-45
2023/04/07 02:30:11;;;;;;;;;;;;;;;6.87;100.00;101529.53;5049519;28;19916;-47
2023/04/07 02:32:36;;;;;;;;;;;;;;;6.85;100.00;101526.88;5052910;28;19917;-48
2023/04/07 02:35:02;;;;;;;;;;;;;;;6.86;100.00;101521.00;5058386;28;19917;-46
2023/04/07 02:37:27;;;;;;;;;;;;;;;6.87;100.00;101516.75;5051380;28;20011;-46
2023/04/07 02:39:53;;;;;;;;;;;;;;;6.86;100.00;101521.00;5055566;28;20268;-45
2023/04/07 02:42:18;;;;;;;;;;;;;;;6.86;100.00;101526.09;5054095;28;19931;-47
2023/04/07 02:44:43;;;;;;;;;;;;;;;6.86;100.00;101515.88;5050109;28;20010;-47
2023/04/07 02:47:09;;;;;;;;;;;;;;;6.87;100.00;101514.19;5050175;28;19927;-46
2023/04/07 02:49:34;;;;;;;;;;;;;;;6.89;100.00;101520.25;5052978;28;19916;-46
2023/04/07 02:51:59;;;;;;;;;;;;;;;6.88;100.00;101513.41;5049140;28;20395;-44
2023/04/07 02:54:24;;;;;;;;;;;;;;;6.87;100.00;101509.09;5056090;28;19947;-44
2023/04/07 02:56:50;;;;;;;;;;;;;;;6.85;100.00;101516.66;5060405;28;20019;-46
2023/04/07 02:59:15;;;;;;;;;;;;;;;6.87;100.00;101517.63;5055283;28;19917;-47
2023/04/07 03:01:40;;;;;;;;;;;;;;;6.85;100.00;101511.53;5055080;28;20401;-48
2023/04/07 03:04:05;;;;;;;;;;;;;;;6.86;100.00;101521.00;5055800;28;20375;-44
2023/04/07 03:06:32;;;;;;;;;;;;;;;6.83;100.00;101513.16;5050765;28;19913;-44
2023/04/07 03:08:57;;;;;;;;;;;;;;;6.85;100.00;101515.78;5053979;28;20283;-44
2023/04/07 03:11:22;;;;;;;;;;;;;;;6.85;100.00;101518.34;5049636;28;20371;-45
2023/04/07 03:13:47;;;;;;;;;;;;;;;6.83;100.00;101519.94;5054654;28;19985;-45
2023/04/07 03:16:13;;;;;;;;;;;;;;;6.83;100.00;101518.25;5054303;28;19948;-45
2023/04/07 03:18:38;;;;;;;;;;;;;;;6.82;100.00;101516.50;5052044;28;19927;-44
2023/04/07 03:21:03;;;;;;;;;;;;;;;6.85;100.00;101520.88;5052046;28;19932;-46
2023/04/07 03:23:28;;;;;;;;;;;;;;;6.87;100.00;101519.31;5055415;28;19917;-46
2023/04/07 03:25:54;;;;;;;;;;;;;;;6.84;100.00;101521.69;5053215;28;19963;-45
2023/04/07 03:28:20;;;;;;;;;;;;;;;6.83;100.00;101515.69;5057746;28;19913;-45
2023/04/07 03:30:45;;;;;;;;;;;;;;;6.82;100.00;101516.50;5053497;28;20256;-46
2023/04/07 03:33:11;;;;;;;;;;;;;;;6.82;100.00;101524.19;5051624;28;20372;-46
2023/04/07 03:35:36;;;;;;;;;;;;;;;6.82;100.00;101518.19;5051187;28;19924;-48
2023/04/07 03:38:01;;;;;;;;;;;;;;;6.83;100.00;101525.94;5057520;28;19924;-48
2023/04/07 03:40:26;;;;;;;;;;;;;;;6.81;100.00;101526.66;5047949;28;19999;-45
2023/04/07 03:42:52;;;;;;;;;;;;;;;6.80;100.00;101528.34;5053611;28;19924;-45
2023/04/07 03:45:17;;;;;;;;;;;;;;;6.78;100.00;101518.81;5050294;28;19962;-45
2023/04/07 03:47:42;;;;;;;;;;;;;;;6.81;100.00;101522.41;5051748;28;20035;-47
2023/04/07 03:50:08;;;;;;;;;;;;;;;6.81;100.00;101522.41;5053355;28;19919;-45
2023/04/07 03:52:33;;;;;;;;;;;;;;;6.81;100.00;101532.66;5058886;28;19917;-46
2023/04/07 03:54:58;;;;;;;;;;;;;;;6.79;100.00;101529.09;5057114;28;19917;-45
2023/04/07 03:57:23;;;;;;;;;;;;;;;6.80;100.00;101540.25;5056460;28;19943;-45
2023/04/07 03:59:50;;;;;;;;;;;;;;;6.80;100.00;101541.13;5056365;28;19917;-44
2023/04/07 04:02:15;;;;;;;;;;;;;;;6.79;100.00;101533.34;5054026;28;19920;-47
2023/04/07 04:04:40;;;;;;;;;;;;;;;6.79;100.00;101538.44;5052071;28;19924;-47
2023/04/07 04:07:07;;;;;;;;;;;;;;;6.79;100.00;101536.78;5054652;28;19990;-45
2023/04/07 04:09:32;;;;;;;;;;;;;;;6.79;100.00;101541.00;5054532;28;20368;-44
2023/04/07 04:11:57;;;;;;;;;;;;;;;6.80;100.00;101538.56;5056246;28;19926;-45
2023/04/07 04:14:22;;;;;;;;;;;;;;;6.80;100.00;101536.00;5058024;28;19916;-45
2023/04/07 04:16:48;;;;;;;;;;;;;;;6.79;100.00;101539.31;5055322;28;19943;-44
2023/04/07 04:19:13;;;;;;;;;;;;;;;6.77;100.00;101532.38;5057780;28;19924;-47
2023/04/07 04:21:38;;;;;;;;;;;;;;;6.74;100.00;101532.25;5053030;28;20007;-45
2023/04/07 04:24:03;;;;;;;;;;;;;;;6.70;100.00;101537.16;5054865;28;19952;-47
2023/04/07 04:26:29;;;;;;;;;;;;;;;6.66;100.00;101536.91;5051468;28;20406;-44
2023/04/07 04:28:54;;;;;;;;;;;;;;;6.63;100.00;101541.88;5055141;28;19924;-46
2023/04/07 04:31:20;;;;;;;;;;;;;;;6.58;100.00;101539.06;5053179;28;19921;-48
2023/04/07 04:33:45;;;;;;;;;;;;;;;6.55;100.00;101538.00;5052553;28;19916;-46
2023/04/07 04:36:10;;;;;;;;;;;;;;;6.51;100.00;101536.09;5052193;28;19966;-46
2023/04/07 04:38:35;;;;;;;;;;;;;;;6.47;100.00;101540.13;5053790;28;19921;-46
2023/04/07 04:41:01;;;;;;;;;;;;;;;6.42;100.00;101539.88;5054501;28;20326;-45
2023/04/07 04:43:26;;;;;;;;;;;;;;;6.41;100.00;101539.81;5060360;28;19999;-46
2023/04/07 04:45:51;;;;;;;;;;;;;;;6.38;100.00;101553.28;5058579;28;19921;-48
2023/04/07 04:48:17;;;;;;;;;;;;;;;6.34;100.00;101546.25;5053408;28;20390;-46
2023/04/07 04:50:42;;;;;;;;;;;;;;;6.32;100.00;101550.41;5056623;28;19923;-46
2023/04/07 04:53:09;;;;;;;;;;;;;;;6.33;100.00;101556.38;5057940;28;19928;-44
2023/04/07 04:55:34;;;;;;;;;;;;;;;6.33;100.00;101557.25;5050690;28;20079;-45
2023/04/07 04:58:00;;;;;;;;;;;;;;;6.33;100.00;101564.94;5049714;28;20397;-46
2023/04/07 05:00:25;;;;;;;;;;;;;;;6.34;100.00;101569.22;5054226;28;19927;-46
2023/04/07 05:02:50;;;;;;;;;;;;;;;6.35;100.00;101573.53;5051749;28;19917;-45
2023/04/07 05:05:15;;;;;;;;;;;;;;;6.38;100.00;101575.41;5054348;28;19913;-45
2023/04/07 05:07:41;;;;;;;;;;;;;;;6.38;100.00;101565.19;5056483;28;19916;-46
2023/04/07 05:10:07;;;;;;;;;;;;;;;6.39;100.00;101570.38;5054491;28;20334;-45
2023/04/07 05:12:33;;;;;;;;;;;;;;;6.41;100.00;101565.34;5051897;28;19958;-48
2023/04/07 05:14:58;;;;;;;;;;;;;;;6.44;100.00;101570.63;5058247;28;19916;-45
2023/04/07 05:17:23;;;;;;;;;;;;;;;6.45;100.00;101572.41;5046067;28;20032;-47
2023/04/07 05:19:48;;;;;;;;;;;;;;;6.47;100.00;101575.03;5052578;28;20015;-45
2023/04/07 05:22:14;;;;;;;;;;;;;;;6.48;100.00;101580.22;5053006;28;19921;-45
2023/04/07 05:24:39;;;;;;;;;;;;;;;6.49;100.00;101569.19;5052214;28;20548;-45
2023/04/07 05:27:04;;;;;;;;;;;;;;;6.51;100.00;101582.97;5052072;28;20427;-46
2023/04/07 05:29:30;;;;;;;;;;;;;;;6.52;100.00;101583.84;5057643;28;19916;-45
2023/04/07 05:31:55;;;;;;;;;;;;;;;6.54;100.00;101587.34;5053463;28;19909;-45
2023/04/07 05:34:21;;;;;;;;;;;;;;;6.56;100.00;101586.66;5057450;28;19917;-45
2023/04/07 05:36:46;;;;;;;;;;;;;;;6.57;100.00;101590.09;5054401;28;19955;-46
2023/04/07 05:39:11;;;;;;;;;;;;;;;6.59;100.00;101589.38;5055613;28;19916;-45
2023/04/07 05:41:36;;;;;;;;;;;;;;;6.61;100.00;101595.47;5058735;28;19919;-45
2023/04/07 05:44:02;;;;;;;;;;;;;;;6.63;100.00;101587.88;5052718;28;19966;-45
2023/04/07 05:46:28;;;;;;;;;;;;;;;6.65;100.00;101597.38;5055386;28;20394;-48
2023/04/07 05:48:53;;;;;;;;;;;;;;;6.68;100.00;101596.69;5054991;28;19923;-47
2023/04/07 05:51:18;;;;;;;;;;;;;;;6.69;100.00;101603.53;5055488;28;19912;-48
2023/04/07 05:53:43;;;;;;;;;;;;;;;6.70;100.00;101598.50;5054668;28;19917;-45
2023/04/07 05:56:09;;;;;;;;;;;;;;;6.72;100.00;101604.56;5053974;28;20290;-47
2023/04/07 05:58:34;;;;;;;;;;;;;;;6.76;100.00;101602.22;5056540;28;20117;-46
2023/04/07 06:00:59;;;;;;;;;;;;;;;6.77;100.00;101594.63;5051504;28;19917;-49
2023/04/07 06:03:24;;;;;;;;;;;;;;;6.80;100.00;101599.91;5056969;28;20003;-47
2023/04/07 06:05:50;;;;;;;;;;;;;;;6.82;100.00;101600.88;5054342;28;20336;-45
2023/04/07 06:08:15;;;;;;;;;;;;;;;6.85;100.00;101606.13;5053452;28;19920;-46
2023/04/07 06:10:40;;;;;;;;;;;;;;;6.88;100.00;101602.88;5053532;28;20338;-45
2023/04/07 06:13:06;;;;;;;;;;;;;;;6.91;100.00;101620.91;5054200;28;20273;-45
2023/04/07 06:15:31;;;;;;;;;;;;;;;6.92;100.00;101612.47;5054435;28;19920;-45
2023/04/07 06:17:57;;;;;;;;;;;;;;;6.94;100.00;101613.44;5056174;28;20017;-48
2023/04/07 06:20:23;;;;;;;;;;;;;;;6.96;100.00;101620.38;5042868;28;19939;-47
2023/04/07 06:22:48;;;;;;;;;;;;;;;6.97;100.00;101623.81;5057898;28;20287;-46
2023/04/07 06:25:13;;;;;;;;;;;;;;;7.02;100.00;101618.97;5055423;28;20005;-47
2023/04/07 06:27:39;;;;;;;;;;;;;;;7.04;100.00;101619.91;5050073;28;19917;-45
2023/04/07 06:30:04;;;;;;;;;;;;;;;7.04;100.00;101620.81;5057482;28;20016;-47
2023/04/07 06:32:30;;;;;;;;;;;;;;;7.05;100.00;101626.81;5052225;28;19942;-47
2023/04/07 06:34:55;;;;;;;;;;;;;;;7.07;100.00;101625.22;5060079;28;19990;-47
2023/04/07 06:37:23;;;;;;;;;;;;;;;7.08;100.00;101627.84;5055135;28;19920;-44
2023/04/07 06:39:48;;;;;;;;;;;;;;;7.10;100.00;101627.91;5056576;28;19909;-45
2023/04/07 06:42:14;;;;;;;;;;;;;;;7.13;100.00;101628.97;5065676;28;19971;-44
2023/04/07 06:44:39;;;;;;;;;;;;;;;7.16;100.00;101641.94;5050657;28;20000;-45
2023/04/07 06:47:04;;;;;;;;;;;;;;;7.19;100.00;101636.09;5050922;28;19948;-45
2023/04/07 06:49:30;;;;;;;;;;;;;;;7.20;100.00;101637.84;5049191;28;19939;-44
2023/04/07 06:51:55;;;;;;;;;;;;;;;7.23;100.00;101640.59;5051337;28;19912;-46
2023/04/07 06:54:20;;;;;;;;;;;;;;;7.25;100.00;101639.88;5052712;28;19921;-43
2023/04/07 06:56:45;;;;;;;;;;;;;;;7.30;100.00;101640.13;5053695;28;20305;-45
2023/04/07 06:59:11;;;;;;;;;;;;;;;7.35;100.00;101648.06;5057543;28;19917;-45
2023/04/07 07:01:36;;;;;;;;;;;;;;;7.37;100.00;101654.13;5060247;28;19912;-44
2023/04/07 07:04:02;;;;;;;;;;;;;;;7.38;100.00;101650.75;5053052;28;19921;-45
2023/04/07 07:06:27;;;;;;;;;;;;;;;7.38;100.00;101650.75;5053222;28;19938;-45
2023/04/07 07:08:52;;;;;;;;;;;;;;;7.40;100.00;101659.38;5054272;28;19947;-45
2023/04/07 07:11:18;;;;;;;;;;;;;;;7.43;100.00;101652.75;5053772;28;20402;-45
2023/04/07 07:13:44;;;;;;;;;;;;;;;7.49;100.00;101655.66;5054802;28;19924;-44
2023/04/07 07:16:09;;;;;;;;;;;;;;;7.55;100.00;101659.34;5059272;28;19919;-45
2023/04/07 07:18:35;;;;;;;;;;;;;;;7.60;100.00;101657.91;5052516;28;19927;-45
2023/04/07 07:21:01;;;;;;;;;;;;;;;7.64;100.00;101660.69;5052776;28;20423;-46
2023/04/07 07:23:26;;;;;;;;;;;;;;;7.70;100.00;101662.69;5052884;28;19951;-47
2023/04/07 07:25:51;;;;;;;;;;;;;;;7.76;100.00;101665.56;5051793;28;20007;-46
2023/04/07 07:28:17;;;;;;;;;;;;;;;7.82;100.00;101665.88;5050303;28;19939;-47
2023/04/07 07:30:42;;;;;;;;;;;;;;;7.85;100.00;101673.72;5049498;28;19913;-46
2023/04/07 07:33:07;;;;;;;;;;;;;;;7.87;100.00;101677.25;5054677;28;19917;-46
2023/04/07 07:35:33;;;;;;;;;;;;;;;7.85;100.00;101671.19;5046524;28;19982;-45
2023/04/07 07:37:59;;;;;;;;;;;;;;;7.83;100.00;101672.78;5056441;28;20441;-45
2023/04/07 07:40:25;;;;;;;;;;;;;;;7.88;100.00;101676.44;5055073;28;20003;-44
2023/04/07 07:42:50;;;;;;;;;;;;;;;7.95;100.00;101681.09;5056259;28;20343;-44
2023/04/07 07:45:18;;;;;;;;;;;;;;;8.02;100.00;101689.97;5053311;28;19956;-45
2023/04/07 07:47:43;;;;;;;;;;;;;;;8.08;100.00;101695.41;5051997;28;19986;-45
2023/04/07 07:50:09;;;;;;;;;;;;;;;8.11;100.00;101687.88;5061025;28;19955;-45
2023/04/07 07:52:34;;;;;;;;;;;;;;;8.13;100.00;101687.94;5060961;28;20396;-46
2023/04/07 07:54:59;;;;;;;;;;;;;;;8.14;100.00;101694.84;5054058;28;20252;-45
2023/04/07 07:57:24;;;;;;;;;;;;;;;8.15;100.00;101692.38;5056902;28;19962;-45
2023/04/07 07:59:50;;;;;;;;;;;;;;;8.14;100.00;101694.84;5056266;28;19920;-47
2023/04/07 08:02:15;;;;;;;;;;;;;;;8.16;100.00;101698.38;5059085;28;19920;-46
2023/04/07 08:04:40;;;;;;;;;;;;;;;8.17;100.00;101689.88;5058195;28;19966;-47
2023/04/07 08:07:06;;;;;;;;;;;;;;;8.18;100.00;101697.63;5061964;28;19913;-44
2023/04/07 08:09:31;;;;;;;;;;;;;;;8.22;100.00;101706.38;5056019;28;19921;-46
2023/04/07 08:11:56;;;;;;;;;;;;;;;8.27;100.00;101708.34;5060240;28;19924;-46
2023/04/07 08:14:22;;;;;;;;;;;;;;;8.30;100.00;101702.50;5062743;28;19923;-44
2023/04/07 08:16:47;;;;;;;;;;;;;;;8.29;100.00;101711.00;5060120;28;19970;-45
2023/04/07 08:19:12;;;;;;;;;;;;;;;8.32;100.00;101706.03;5058900;28;19912;-47
2023/04/07 08:21:38;;;;;;;;;;;;;;;8.34;100.00;101717.22;5057184;28;19944;-47
2023/04/07 08:24:03;;;;;;;;;;;;;;;8.36;100.00;101717.34;5055796;28;19916;-46
2023/04/07 08:26:29;;;;;;;;;;;;;;;8.39;100.00;101720.06;5056412;28;19919;-47
2023/04/07 08:28:54;;;;;;;;;;;;;;;8.36;100.00;101718.22;5055152;28;19921;-49
2023/04/07 08:31:20;;;;;;;;;;;;;;;8.35;100.00;101729.25;5057786;28;20006;-46
2023/04/07 08:33:46;;;;;;;;;;;;;;;8.39;100.00;101733.75;5052379;28;19916;-47
2023/04/07 08:36:11;;;;;;;;;;;;;;;8.42;100.00;101730.47;5059651;28;21701;-46
2023/04/07 08:38:36;;;;;;;;;;;;;;;8.49;100.00;101728.31;5055086;28;20346;-47
2023/04/07 08:41:03;;;;;;;;;;;;;;;8.59;100.00;101734.75;5057063;28;19965;-45
2023/04/07 08:43:29;;;;;;;;;;;;;;;8.69;100.00;101730.97;5057830;28;19912;-46
2023/04/07 08:45:56;;;;;;;;;;;;;;;8.77;100.00;101734.78;5054622;28;20320;-46
2023/04/07 08:48:22;;;;;;;;;;;;;;;8.90;100.00;101733.69;5054521;28;19923;-47
2023/04/07 08:50:51;;;;;;;;;;;;;;;8.96;100.00;101732.31;5054380;28;19923;-51
2023/04/07 08:53:19;;;;;;;;;;;;;;;9.02;100.00;101737.72;5054302;28;19919;-50
2023/04/07 08:55:44;;;;;;;;;;;;;;;9.13;100.00;101745.94;5054914;28;19909;-45
2023/04/07 08:58:12;;;;;;;;;;;;;;;9.20;100.00;101747.13;5056510;28;19917;-51
2023/04/07 09:00:40;;;;;;;;;;;;;;;9.30;100.00;101749.31;5042008;28;19928;-47
2023/04/07 09:03:07;;;;;;;;;;;;;;;9.40;100.00;101746.34;5054249;28;20318;-48
2023/04/07 09:05:33;;;;;;;;;;;;;;;9.35;100.00;101746.16;5059640;28;20297;-48
2023/04/07 09:07:58;;;;;;;;;;;;;;;9.34;100.00;101753.78;5054091;28;19925;-50
2023/04/07 09:10:23;;;;;;;;;;;;;;;9.30;100.00;101746.75;5054978;28;19934;-47
2023/04/07 09:12:48;;;;;;;;;;;;;;;9.25;100.00;101753.34;5057084;28;19917;-48
2023/04/07 09:15:14;;;;;;;;;;;;;;;9.23;100.00;101757.53;5055785;28;19913;-48
2023/04/07 09:17:39;;;;;;;;;;;;;;;9.17;100.00;101757.25;5058272;28;19987;-50
2023/04/07 09:20:04;;;;;;;;;;;;;;;9.12;100.00;101751.88;5059620;28;19969;-48
2023/04/07 09:22:50;;;;;;;;;;;;;;;9.07;100.00;101756.78;5055402;28;20371;-48
2023/04/07 09:25:16;;;;;;;;;;;;;;;9.08;100.00;101760.22;5055428;28;19935;-46
2023/04/07 09:27:57;;;;;;;;;;;;;;;9.12;100.00;101757.91;5054863;28;19920;-46
2023/04/07 09:30:22;;;;;;;;;;;;;;;9.17;100.00;101765.81;5057750;28;19923;-46
2023/04/07 09:32:48;;;;;;;;;;;;;;;9.19;100.00;101763.31;5058705;28;19924;-47
2023/04/07 09:35:13;;;;;;;;;;;;;;;9.23;100.00;101765.25;5056179;28;19994;-46
2023/04/07 09:37:38;;;;;;;;;;;;;;;9.26;100.00;101761.13;5053522;28;20322;-47
2023/04/07 09:40:04;;;;;;;;;;;;;;;9.30;100.00;101754.47;5055847;28;19916;-48
2023/04/07 09:42:34;;;;;;;;;;;;;;;9.38;100.00;101759.13;5054047;28;19954;-47
2023/04/07 09:45:00;;;;;;;;;;;;;;;9.39;100.00;101763.44;5050791;28;19932;-49
2023/04/07 09:47:27;;;;;;;;;;;;;;;9.43;100.00;101766.19;5051886;28;19924;-47
2023/04/07 09:49:53;;;;;;;;;;;;;;;9.40;100.00;101764.31;5056202;28;19912;-49
2023/04/07 09:52:22;;;;;;;;;;;;;;;9.37;100.00;101759.94;5053925;28;19986;-44
2023/04/07 09:54:48;;;;;;;;;;;;;;;9.32;100.00;101765.66;5054123;28;20636;-44
2023/04/07 09:57:13;;;;;;;;;;;;;;;9.26;100.00;101768.81;5052478;28;19923;-44
2023/04/07 09:59:41;;;;;;;;;;;;;;;9.24;100.00;101764.44;5052594;28;19920;-44
2023/04/07 10:02:07;;;;;;;;;;;;;;;9.17;100.00;101770.09;5053878;28;19912;-46
2023/04/07 10:04:32;;;;;;;;;;;;;;;9.16;100.00;101779.47;5059011;28;20389;-46
2023/04/07 10:06:59;;;;;;;;;;;;;;;9.04;100.00;101774.63;5049844;28;20400;-44
2023/04/07 10:09:25;;;;;;;;;;;;;;;9.03;100.00;101783.09;5055491;28;19958;-45
2023/04/07 10:11:51;;;;;;;;;;;;;;;8.98;100.00;101778.53;5054306;28;20475;-47
2023/04/07 10:14:18;;;;;;;;;;;;;;;8.99;100.00;101791.47;5055956;28;19998;-44
2023/04/07 10:16:45;;;;;;;;;;;;;;;9.01;100.00;101788.97;5056336;28;19913;-46
2023/04/07 10:19:10;;;;;;;;;;;;;;;9.08;100.00;101789.34;5053267;28;19913;-44
2023/04/07 10:21:37;;;;;;;;;;;;;;;9.18;100.00;101788.09;5058284;28;19913;-46
2023/04/07 10:24:09;;;;;;;;;;;;;;;9.33;100.00;101793.09;5036348;28;20046;-44
2023/04/07 10:26:35;;;;;;;;;;;;;;;9.39;99.49;101788.25;5052351;28;19916;-45
2023/04/07 10:29:07;;;;;;;;;;;;;;;9.47;99.89;101798.91;5051917;28;20295;-44
2023/04/07 10:31:32;;;;;;;;;;;;;;;9.56;100.00;101797.63;5051482;28;20363;-45
2023/04/07 10:33:57;;;;;;;;;;;;;;;9.68;98.90;101807.59;5054308;28;19912;-45
2023/04/07 10:36:23;;;;;;;;;;;;;;;9.70;99.39;101803.41;5057097;28;19927;-44
2023/04/07 10:39:06;;;;;;;;;;;;;;;9.71;97.12;101811.97;5051274;28;20011;-45
2023/04/07 10:41:35;;;;;;;;;;;;;;;9.64;99.49;101806.56;5054741;28;19916;-45
2023/04/07 10:44:04;;;;;;;;;;;;;;;9.61;100.00;101811.56;5053952;28;19920;-45
2023/04/07 10:46:46;;;;;;;;;;;;;;;9.59;100.00;101805.50;5053258;28;19940;-45
2023/04/07 10:49:12;;;;;;;;;;;;;;;9.53;99.53;101807.75;5051327;28;19916;-45
2023/04/07 10:51:38;;;;;;;;;;;;;;;9.50;100.00;101807.59;5051474;28;20317;-45
2023/04/07 10:54:24;;;;;;;;;;;;;;;9.50;100.00;101807.59;5052998;28;19916;-44
2023/04/07 10:57:02;;;;;;;;;;;;;;;9.53;100.00;101812.91;5055694;28;20007;-45
2023/04/07 10:59:28;;;;;;;;;;;;;;;9.55;99.91;101816.41;5051868;28;19913;-45
2023/04/07 11:02:11;;;;;;;;;;;;;;;9.55;100.00;101815.53;5053571;28;19920;-45
2023/04/07 11:04:41;;;;;;;;;;;;;;;9.52;99.95;101811.13;5055367;28;19990;-45
2023/04/07 11:07:06;;;;;;;;;;;;;;;9.54;98.40;101816.34;5056347;28;19965;-44
2023/04/07 11:09:31;;;;;;;;;;;;;;;9.48;99.54;101821.19;5040831;28;19920;-44
2023/04/07 11:11:57;;;;;;;;;;;;;;;9.46;98.59;101813.38;5052289;28;19924;-45
2023/04/07 11:14:26;;;;;;;;;;;;;;;9.48;99.65;101819.50;5052617;28;19982;-46
2023/04/07 11:16:51;;;;;;;;;;;;;;;9.48;97.92;101813.50;5054311;28;19965;-44
2023/04/07 11:19:16;;;;;;;;;;;;;;;9.48;98.41;101823.75;5055000;28;19912;-44
2023/04/07 11:21:42;;;;;;;;;;;;;;;9.45;100.00;101818.47;5053642;28;19952;-44
2023/04/07 11:24:07;;;;;;;;;;;;;;;9.48;100.00;101821.19;5038357;28;20334;-44
2023/04/07 11:26:37;;;;;;;;;;;;;;;9.44;98.88;101822.72;5051832;28;20019;-44
2023/04/07 11:29:02;;;;;;;;;;;;;;;9.41;100.00;101822.59;5050004;28;19928;-45
2023/04/07 11:31:29;;;;;;;;;;;;;;;9.44;99.59;101819.28;5050172;28;20019;-47
2023/04/07 11:33:56;;;;;;;;;;;;;;;9.49;99.22;101828.97;5056183;28;19912;-43
2023/04/07 11:36:37;;;;;;;;;;;;;;;9.47;98.38;101824.56;5053337;28;19916;-43
2023/04/07 11:39:02;;;;;;;;;;;;;;;9.48;98.98;101826.31;5052768;28;20023;-43
2023/04/07 11:41:29;;;;;;;;;;;;;;;9.51;98.72;101823.88;5051308;28;20645;-43
2023/04/07 11:44:08;;;;;;;;;;;;;;;9.63;96.90;101820.22;5052890;28;19920;-45
2023/04/07 11:46:34;;;;;;;;;;;;;;;9.70;98.20;101825.63;5054264;28;19956;-48
2023/04/07 11:49:11;;;;;;;;;;;;;;;9.86;98.28;101830.69;5043048;28;19999;-48
2023/04/07 11:51:36;;;;;;;;;;;;;;;9.99;97.05;101830.44;5050785;28;20015;-47
2023/04/07 11:54:01;;;;;;;;;;;;;;;10.01;95.50;101828.84;5051472;28;19967;-50
2023/04/07 11:56:27;;;;;;;;;;;;;;;10.01;94.47;101833.06;5049797;28;19924;-46
2023/04/07 11:58:53;;;;;;;;;;;;;;;9.98;95.83;101836.38;5052054;28;19920;-46
2023/04/07 12:01:19;;;;;;;;;;;;;;;10.01;95.50;101844.25;5052750;28;19923;-47
2023/04/07 12:03:57;;;;;;;;;;;;;;;10.01;94.57;101849.38;5056733;28;19912;-47
2023/04/07 12:06:28;;;;;;;;;;;;;;;9.95;95.41;101846.53;5052141;28;20023;-48
2023/04/07 12:08:53;;;;;;;;;;;;;;;9.91;93.50;101850.66;5055077;28;19951;-50
2023/04/07 12:11:18;;;;;;;;;;;;;;;9.82;92.45;101852.75;5054803;28;19956;-47
2023/04/07 12:13:44;;;;;;;;;;;;;;;9.83;94.89;101854.56;5054267;28;19916;-52
2023/04/07 12:16:09;;;;;;;;;;;;;;;9.86;92.92;101864.97;5049339;28;19925;-51
2023/04/07 12:18:35;;;;;;;;;;;;;;;9.80;93.94;101861.22;5052030;28;20030;-48
2023/04/07 12:21:00;;;;;;;;;;;;;;;9.80;93.82;101856.09;5054327;28;20310;-49
2023/04/07 12:23:26;;;;;;;;;;;;;;;9.79;94.58;101856.91;5053502;28;19913;-48
2023/04/07 12:25:51;;;;;;;;;;;;;;;9.74;95.02;101856.69;5042210;28;19924;-52
2023/04/07 12:28:16;;;;;;;;;;;;;;;9.70;95.61;101856.44;5056118;28;19952;-49
2023/04/07 12:30:42;;;;;;;;;;;;;;;9.71;95.53;101853.97;5051807;28;19917;-48
2023/04/07 12:33:07;;;;;;;;;;;;;;;9.65;94.58;101864.84;5053914;28;19959;-50